Time;durP1;ratioP1;P1;durP2;ratioP2;P2;SDS_P1;SDS_P2;PMS_P1;PMS_P2;Temp;Humidity;BMP_temperature;BMP_pressure;BME280_temperature;BME280_humidity;BME280_pressure;Samples;Min_cycle;Max_cycle;Signal;HPM_P1;HPM_P2
2022/05/23 00:01:35;;;;;;;37.35;22.55;;;;;;;18.40;60.90;100687.88;4991805;28;20024;-74
2022/05/23 00:04:00;;;;;;;33.38;21.10;;;;;;;18.39;61.06;100688.78;4991727;28;20041;-74
2022/05/23 00:06:25;;;;;;;35.15;21.10;;;;;;;18.39;60.55;100698.44;4990638;28;20065;-75
2022/05/23 00:08:51;;;;;;;33.33;20.88;;;;;;;18.36;62.16;100693.22;4991819;28;20112;-75
2022/05/23 00:11:19;;;;;;;31.60;20.15;;;;;;;18.32;61.45;100697.66;4991222;28;20448;-75
2022/05/23 00:13:45;;;;;;;34.53;21.13;;;;;;;18.30;61.41;100690.66;4991875;28;20022;-75
2022/05/23 00:16:17;;;;;;;34.33;20.58;;;;;;;18.23;61.60;100692.47;4990365;28;20030;-75
2022/05/23 00:18:42;;;;;;;30.88;19.48;;;;;;;18.22;61.48;100696.88;4991504;28;20034;-75
2022/05/23 00:21:07;;;;;;;33.95;21.00;;;;;;;18.19;61.51;100689.00;4991326;28;20025;-75
2022/05/23 00:23:33;;;;;;;33.83;21.45;;;;;;;18.15;61.58;100689.91;4991533;28;20430;-74
2022/05/23 00:25:58;;;;;;;30.42;20.10;;;;;;;18.14;61.77;100690.81;4990959;28;20092;-74
2022/05/23 00:28:23;;;;;;;32.50;20.52;;;;;;;18.09;61.93;100679.44;4990874;28;20041;-74
2022/05/23 00:30:49;;;;;;;32.58;21.20;;;;;;;18.05;62.41;100668.03;4983793;28;20022;-74
2022/05/23 00:35:59;;;;;;;33.78;21.00;;;;;;;18.01;62.69;100676.84;4960025;28;20149;-74
2022/05/23 00:38:25;;;;;;;36.97;21.20;;;;;;;17.97;62.62;100676.91;4990622;28;20030;-74
2022/05/23 00:43:13;;;;;;;35.97;21.95;;;;;;;17.97;62.65;100679.53;4990971;28;20122;-75
2022/05/23 00:43:43;;;;;;;37.05;22.17;;;;;;;17.97;62.89;100672.50;4991192;28;20509;-74
2022/05/23 00:46:10;;;;;;;36.25;21.88;;;;;;;17.94;63.14;100675.16;4990491;28;20033;-75
2022/05/23 00:48:35;;;;;;;39.05;22.60;;;;;;;17.93;62.68;100670.81;4991289;28;20143;-75
2022/05/23 00:51:09;;;;;;;36.15;22.80;;;;;;;17.92;63.12;100661.16;4991005;28;20494;-74
2022/05/23 00:53:46;;;;;;;37.67;23.10;;;;;;;17.90;63.46;100655.00;4991229;28;20018;-74
2022/05/23 00:56:14;;;;;;;38.75;22.77;;;;;;;17.88;64.42;100646.22;4990536;28;20038;-74
2022/05/23 00:58:43;;;;;;;38.25;25.92;;;;;;;17.88;64.22;100643.56;4991604;28;20122;-74
2022/05/23 01:01:12;;;;;;;37.13;24.63;;;;;;;17.84;63.95;100637.47;4990994;28;20394;-74
2022/05/23 01:03:38;;;;;;;38.75;23.70;;;;;;;17.84;63.28;100634.84;4990905;28;20050;-75
2022/05/23 01:06:07;;;;;;;36.38;23.45;;;;;;;17.80;63.04;100634.84;4990313;28;20429;-74
2022/05/23 01:08:33;;;;;;;;;;;;;;;18.00;62.41;100643.50;4991550;28;20030;-74
2022/05/23 01:10:59;;;;;;;31.80;22.20;;;;;;;17.83;63.21;100648.00;4990388;28;19952;-75
2022/05/23 01:13:24;;;;;;;33.20;22.05;;;;;;;17.78;63.62;100648.06;4990810;28;20112;-74
2022/05/23 01:15:50;;;;;;;35.58;23.05;;;;;;;17.74;64.03;100659.50;4990069;28;20037;-74
2022/05/23 01:18:16;;;;;;;37.30;22.20;;;;;;;17.71;63.82;100667.44;4973222;28;20401;-74
2022/05/23 01:20:45;;;;;;;41.75;22.38;;;;;;;17.72;64.08;100663.94;4990174;28;20034;-75
2022/05/23 01:23:14;;;;;;;34.40;21.30;;;;;;;17.73;63.75;100655.16;4991819;28;20034;-74
2022/05/23 01:25:42;;;;;;;36.80;22.48;;;;;;;17.67;63.76;100656.06;4994230;28;20524;-75
2022/05/23 01:28:09;;;;;;;34.28;22.45;;;;;;;17.66;63.24;100646.41;4994725;28;20097;-74
2022/05/23 01:30:35;;;;;;;35.25;21.13;;;;;;;17.64;63.48;100640.28;4992752;28;20497;-74
2022/05/23 01:33:01;;;;;;;35.42;22.25;;;;;;;17.62;63.73;100635.91;4994743;28;20061;-74
2022/05/23 01:35:27;;;;;;;39.80;22.42;;;;;;;17.59;63.60;100635.94;4983815;28;20026;-74
2022/05/23 01:37:52;;;;;;;41.45;22.45;;;;;;;17.58;64.13;100631.56;4994255;28;20045;-74
2022/05/23 01:40:19;;;;;;;35.70;21.27;;;;;;;17.56;64.13;100631.56;4994362;28;20035;-74
2022/05/23 01:42:45;;;;;;;42.17;22.27;;;;;;;17.50;64.24;100626.38;4994700;28;20029;-74
2022/05/23 01:45:12;;;;;;;40.95;22.30;;;;;;;17.47;64.60;100626.41;4994165;28;20030;-74
2022/05/23 01:47:38;;;;;;;39.40;22.55;;;;;;;17.43;64.68;100625.53;4994699;28;20037;-74
2022/05/23 01:50:04;;;;;;;37.78;22.65;;;;;;;17.38;64.77;100630.84;4994500;28;20400;-75
2022/05/23 01:52:30;;;;;;;37.15;23.60;;;;;;;17.36;64.48;100639.63;4994407;28;20587;-74
2022/05/23 01:54:55;;;;;;;42.10;23.70;;;;;;;17.35;64.94;100640.50;4994182;28;20109;-74
2022/05/23 01:57:20;;;;;;;40.15;23.73;;;;;;;17.32;64.83;100638.78;4993539;28;20058;-74
2022/05/23 02:02:29;;;;;;;39.80;24.17;;;;;;;17.25;64.76;100630.94;4994482;28;20045;-74
2022/05/23 02:04:55;;;;;;;42.55;24.55;;;;;;;17.24;65.09;100626.56;4993995;28;20023;-74
2022/05/23 02:07:20;;;;;;;40.75;25.02;;;;;;;17.24;65.61;100608.16;4975926;28;20453;-75
2022/05/23 02:09:46;;;;;;;44.15;25.33;;;;;;;17.19;65.88;100606.41;4994021;28;20022;-75
2022/05/23 02:12:13;;;;;;;37.22;24.73;;;;;;;17.22;65.44;100608.16;4993844;28;20026;-74
2022/05/23 02:14:38;;;;;;;35.88;24.15;;;;;;;17.15;65.88;100615.22;4994028;28;20096;-75
2022/05/23 02:17:08;;;;;;;43.63;25.65;;;;;;;17.13;65.51;100610.84;4992744;28;20062;-74
2022/05/23 02:19:33;;;;;;;34.40;24.83;;;;;;;17.10;65.56;100609.09;4975867;28;20034;-74
2022/05/23 02:21:59;;;;;;;37.63;24.13;;;;;;;17.08;65.83;100617.91;4993259;28;20041;-74
2022/05/23 02:24:24;;;;;;;38.47;24.23;;;;;;;17.05;66.18;100613.53;4983758;28;20034;-74
2022/05/23 02:26:49;;;;;;;37.90;22.92;;;;;;;17.06;66.22;100607.41;4992930;28;20567;-68
2022/05/23 02:29:15;;;;;;;36.67;23.23;;;;;;;17.06;66.11;100603.88;4993602;28;20245;-68
2022/05/23 02:31:40;;;;;;;38.45;22.38;;;;;;;17.03;65.86;100595.13;4993854;28;20031;-68
2022/05/23 02:34:06;;;;;;;37.67;22.15;;;;;;;17.03;66.04;100592.50;4993092;28;20068;-69
2022/05/23 02:36:32;;;;;;;39.55;23.60;;;;;;;16.99;66.10;100592.53;4992397;28;20084;-68
2022/05/23 02:38:57;;;;;;;38.40;21.88;;;;;;;16.97;66.58;100586.38;4993078;28;20045;-69
2022/05/23 02:41:22;;;;;;;36.85;22.60;;;;;;;16.96;66.33;100587.25;4993590;28;20026;-69
2022/05/23 02:43:48;;;;;;;34.65;22.70;;;;;;;16.93;66.88;100585.53;4993567;28;20113;-68
2022/05/23 02:46:14;;;;;;;36.30;22.55;;;;;;;16.92;66.55;100582.94;4992647;28;20061;-69
2022/05/23 02:48:39;;;;;;;37.40;23.58;;;;;;;16.92;66.78;100575.03;4992986;28;20026;-69
2022/05/23 02:51:05;;;;;;;36.38;22.45;;;;;;;16.93;66.51;100576.75;4993410;28;20014;-69
2022/05/23 02:53:30;;;;;;;35.75;22.75;;;;;;;16.90;66.55;100566.25;4993183;28;20077;-68
2022/05/23 02:55:56;;;;;;;45.72;24.08;;;;;;;16.86;66.90;100566.25;4992562;28;20026;-69
2022/05/23 02:58:21;;;;;;;37.53;24.38;;;;;;;16.89;67.19;100546.97;4992523;28;20112;-69
2022/05/23 03:00:47;;;;;;;38.05;23.30;;;;;;;16.84;66.74;100531.19;4993076;28;20054;-69
2022/05/23 03:03:12;;;;;;;41.30;23.75;;;;;;;16.78;67.17;100531.22;4990144;28;20482;-68
2022/05/23 03:05:49;;;;;;;44.03;24.83;;;;;;;16.77;67.52;100523.31;4992626;28;20026;-69
2022/05/23 03:08:17;;;;;;;41.05;24.80;;;;;;;16.74;67.63;100512.81;4992805;28;20035;-68
2022/05/23 03:10:43;;;;;;;38.40;24.08;;;;;;;16.72;67.22;100498.81;4992870;28;20513;-68
2022/05/23 03:13:09;;;;;;;41.72;23.45;;;;;;;16.69;67.36;100489.19;4992730;28;20026;-68
2022/05/23 03:15:35;;;;;;;38.42;24.20;;;;;;;16.70;67.32;100483.06;4992419;28;20026;-68
2022/05/23 03:18:00;;;;;;;36.55;24.27;;;;;;;16.67;67.28;100486.56;4992185;28;20030;-68
2022/05/23 03:20:26;;;;;;;40.28;25.15;;;;;;;16.65;67.09;100488.31;4992029;28;20032;-68
2022/05/23 03:28:20;;;;;;;40.85;25.30;;;;;;;16.65;67.59;100477.81;4992821;28;20046;-68
2022/05/23 03:30:46;;;;;;;37.95;25.27;;;;;;;16.59;67.24;100472.59;4992371;28;20105;-74
2022/05/23 03:33:11;;;;;;;34.83;24.73;;;;;;;16.58;67.86;100469.97;4992196;28;20142;-74
2022/05/23 03:35:37;;;;;;;41.50;24.98;;;;;;;16.56;67.78;100461.25;4991948;28;20111;-74
2022/05/23 03:38:03;;;;;;;42.90;26.02;;;;;;;16.50;68.35;100462.16;4991468;28;20026;-74
2022/05/23 03:40:29;;;;;;;39.58;24.38;;;;;;;16.48;68.11;100456.00;4992160;28;20018;-74
2022/05/23 03:42:55;;;;;;;41.95;24.67;;;;;;;16.46;68.52;100455.16;4992361;28;20409;-74
2022/05/23 03:45:21;;;;;;;38.03;24.60;;;;;;;16.40;68.37;100444.69;4991919;28;20171;-74
2022/05/23 03:47:48;;;;;;;39.97;24.02;;;;;;;16.37;68.63;100453.47;4991278;28;20470;-74
2022/05/23 03:50:14;;;;;;;41.33;24.75;;;;;;;16.37;68.29;100445.59;4992475;28;20045;-74
2022/05/23 03:52:39;;;;;;;38.03;24.13;;;;;;;16.35;69.01;100436.81;4991566;28;20389;-74
2022/05/23 03:55:05;;;;;;;38.08;24.08;;;;;;;16.37;69.47;100432.44;4992229;28;20088;-74
2022/05/23 03:57:30;;;;;;;39.30;24.10;;;;;;;16.35;69.25;100434.19;4992022;28;20030;-74
2022/05/23 03:59:57;;;;;;;37.83;24.38;;;;;;;16.34;68.77;100437.72;4992429;28;20010;-74
2022/05/23 04:02:23;;;;;;;35.97;23.88;;;;;;;16.35;69.04;100426.28;4991170;28;20033;-74
2022/05/23 04:04:49;;;;;;;39.33;23.67;;;;;;;16.34;69.16;100435.09;4991719;28;20028;-74
2022/05/23 04:07:14;;;;;;;36.50;23.10;;;;;;;16.36;69.21;100427.19;4991741;28;20026;-74
2022/05/23 04:09:40;;;;;;;40.05;24.15;;;;;;;16.31;69.78;100425.47;4991743;28;20123;-74
2022/05/23 04:12:06;;;;;;;39.08;23.85;;;;;;;16.33;69.85;100422.81;4987921;28;20500;-74
2022/05/23 04:14:31;;;;;;;36.65;23.27;;;;;;;16.32;69.64;100415.81;4991887;28;20034;-74
2022/05/23 04:16:57;;;;;;;40.92;24.27;;;;;;;16.32;70.05;100406.19;4991579;28;20030;-74
2022/05/23 04:19:23;;;;;;;34.85;23.63;;;;;;;16.29;70.01;100405.31;4991501;28;20378;-74
2022/05/23 04:21:49;;;;;;;36.83;24.20;;;;;;;16.26;70.16;100408.81;4990511;28;20030;-74
2022/05/23 04:24:17;;;;;;;38.53;24.02;;;;;;;16.22;69.94;100399.25;4978323;28;20609;-74
2022/05/23 04:26:42;;;;;;;38.70;24.23;;;;;;;16.22;70.44;100400.97;4991655;28;20489;-74
2022/05/23 04:29:08;;;;;;;35.92;23.10;;;;;;;16.20;70.18;100403.63;4991250;28;20030;-74
2022/05/23 04:31:35;;;;;;;36.45;22.98;;;;;;;16.22;70.75;100399.25;4992013;28;20021;-74
2022/05/23 04:37:02;;;;;;;35.80;23.08;;;;;;;16.28;70.66;100408.81;4912120;29;20135;-74
2022/05/23 04:39:27;;;;;;;34.67;22.85;;;;;;;16.26;70.43;100397.44;4971791;28;20456;-74
2022/05/23 04:41:52;;;;;;;36.13;23.10;;;;;;;16.29;70.24;100400.06;4990631;28;20030;-74
2022/05/23 04:44:17;;;;;;;36.28;23.48;;;;;;;16.29;71.12;100393.06;4991147;28;20358;-74
2022/05/23 04:49:49;;;;;;;38.60;23.05;;;;;;;16.31;71.34;100374.66;4990529;28;20049;-74
2022/05/23 04:52:19;;;;;;;34.67;23.23;;;;;;;16.34;71.50;100383.38;4992882;28;20030;-74
2022/05/23 04:54:45;;;;;;;35.67;23.25;;;;;;;16.35;71.58;100384.22;4996786;28;20516;-74
2022/05/23 04:57:14;;;;;;;37.80;24.35;;;;;;;16.34;72.01;100379.88;5033649;23;20049;-73
2022/05/23 04:59:39;;;;;;;36.50;23.63;;;;;;;16.37;71.80;100377.22;5024543;28;20032;-73
2022/05/23 05:02:05;;;;;;;33.80;23.48;;;;;;;16.36;72.05;100375.47;5027464;28;20025;-73
2022/05/23 05:04:32;;;;;;;33.50;23.25;;;;;;;16.37;72.77;100376.34;5025847;28;20049;-73
2022/05/23 05:06:57;;;;;;;36.38;23.60;;;;;;;16.38;72.74;100368.44;5025388;28;20032;-73
2022/05/23 05:09:23;;;;;;;33.50;22.83;;;;;;;16.38;72.41;100372.81;5028750;28;20116;-73
2022/05/23 05:11:49;;;;;;;37.60;23.65;;;;;;;16.39;72.43;100375.44;5025274;28;20472;-73
2022/05/23 05:14:15;;;;;;;36.33;24.00;;;;;;;16.40;72.95;100364.03;5017638;28;20026;-73
2022/05/23 05:16:40;;;;;;;33.05;23.83;;;;;;;16.43;73.20;100356.13;5023103;28;20034;-73
2022/05/23 05:19:05;;;;;;;36.47;23.73;;;;;;;16.48;73.04;100345.56;5015420;28;20104;-73
2022/05/23 05:21:30;;;;;;;33.03;24.63;;;;;;;16.48;73.35;100343.81;5010963;28;20041;-73
2022/05/23 05:23:56;;;;;;;35.53;24.50;;;;;;;16.51;73.52;100332.38;5023048;28;20099;-73
2022/05/23 05:26:22;;;;;;;31.38;23.75;;;;;;;16.56;73.08;100324.47;5010080;28;20477;-73
2022/05/23 05:28:48;;;;;;;33.45;23.73;;;;;;;16.58;73.47;100317.41;5010482;28;20026;-67
2022/05/23 05:31:49;;;;;;;36.90;23.67;;;;;;;16.65;72.77;100324.38;5023637;28;20054;-67
2022/05/23 05:34:21;;;;;;;32.17;23.35;;;;;;;16.67;73.49;100328.72;5023145;28;20029;-67
2022/05/23 05:36:54;;;;;;;31.65;23.58;;;;;;;16.69;73.47;100313.78;5010482;28;20022;-67
2022/05/23 05:39:21;;;;;;;33.97;23.63;;;;;;;16.73;73.52;100311.13;5009992;28;20033;-67
2022/05/23 05:42:05;;;;;;;30.80;23.30;;;;;;;16.76;74.66;100309.34;5022649;28;20033;-67
2022/05/23 05:44:34;;;;;;;34.80;23.65;;;;;;;16.82;74.35;100304.00;5011297;28;20076;-67
2022/05/23 05:47:04;;;;;;;33.38;23.70;;;;;;;16.85;74.10;100303.97;5010430;28;20361;-67
2022/05/23 05:49:35;;;;;;;35.28;23.73;;;;;;;16.90;74.02;100309.25;5015423;28;20488;-67
2022/05/23 05:52:03;;;;;;;33.25;23.38;;;;;;;16.95;72.80;100298.66;5020967;28;20117;-67
2022/05/23 05:54:30;;;;;;;36.78;23.60;;;;;;;16.98;74.16;100291.59;5010758;28;20065;-67
2022/05/23 05:56:58;;;;;;;36.20;23.90;;;;;;;17.01;74.90;100274.91;5009987;28;20415;-67
2022/05/23 05:59:24;;;;;;;32.33;24.10;;;;;;;17.06;74.66;100283.63;5010114;28;20029;-67
2022/05/23 06:01:49;;;;;;;31.90;23.63;;;;;;;17.12;73.82;100283.53;5011306;28;20036;-67
2022/05/23 06:04:15;;;;;;;31.13;23.08;;;;;;;17.14;73.19;100276.47;5011686;28;20036;-67
2022/05/23 06:12:08;;;;;;;28.25;20.65;;;;;;;17.30;71.41;100284.19;5014446;28;20044;-67
2022/05/23 06:14:34;;;;;;;28.50;20.65;;;;;;;17.33;72.47;100286.78;5013628;28;20018;-67
2022/05/23 06:16:59;;;;;;;27.67;20.38;;;;;;;17.37;71.93;100280.59;5011487;28;20033;-67
2022/05/23 06:19:25;;;;;;;26.02;20.98;;;;;;;17.41;71.66;100282.28;5013462;28;20108;-67
2022/05/23 06:21:50;;;;;;;27.40;19.83;;;;;;;17.45;72.19;100272.56;5012991;28;20054;-67
2022/05/23 06:24:15;;;;;;;25.05;19.13;;;;;;;17.47;72.09;100258.50;5026381;28;20058;-67
2022/05/23 06:26:41;;;;;;;31.67;20.42;;;;;;;17.51;70.56;100270.72;5002473;28;20537;-67
2022/05/23 06:29:06;;;;;;;27.20;19.27;;;;;;;17.55;71.17;100261.91;5013034;28;20025;-67
2022/05/23 06:31:33;;;;;;;29.38;19.50;;;;;;;17.60;72.24;100261.81;5013287;28;20028;-67
2022/05/23 06:33:58;;;;;;;28.15;18.85;;;;;;;17.65;72.04;100256.47;5025432;28;20034;-67
2022/05/23 06:36:23;;;;;;;23.48;17.33;;;;;;;17.68;69.54;100248.53;5012974;28;20021;-67
2022/05/23 06:38:49;;;;;;;25.00;18.45;;;;;;;17.71;71.46;100241.44;5027038;28;20041;-67
2022/05/23 06:41:15;;;;;;;24.52;18.77;;;;;;;17.73;69.58;100238.78;5031762;28;20033;-67
2022/05/23 06:43:42;;;;;;;26.25;18.60;;;;;;;17.77;69.15;100251.03;5023368;28;20109;-67
2022/05/23 06:46:09;;;;;;;25.75;17.77;;;;;;;17.80;68.21;100250.09;5013062;28;20032;-67
2022/05/23 06:48:35;;;;;;;25.67;18.67;;;;;;;17.84;69.47;100257.06;5012955;28;20109;-67
2022/05/23 06:51:00;;;;;;;25.02;17.40;;;;;;;17.86;68.54;100256.16;5017787;28;20120;-67
2022/05/23 06:53:27;;;;;;;24.10;17.35;;;;;;;17.90;70.77;100255.25;5016723;28;20083;-67
2022/05/23 06:55:53;;;;;;;24.77;17.30;;;;;;;17.95;69.72;100251.66;5023534;28;20476;-67
2022/05/23 06:58:21;;;;;;;23.02;17.00;;;;;;;18.01;69.42;100259.47;5012822;28;20036;-67
2022/05/23 07:00:48;;;;;;;26.30;17.58;;;;;;;18.07;68.81;100254.06;5015523;28;20057;-67
2022/05/23 07:03:13;;;;;;;23.23;17.50;;;;;;;18.10;70.09;100251.38;5017529;28;20026;-67
2022/05/23 07:14:02;;;;;;;20.15;14.95;;;;;;;18.15;68.35;100244.28;5032487;28;20044;-67
2022/05/23 07:16:30;;;;;;;23.55;15.52;;;;;;;18.18;68.13;100249.50;5032012;28;20463;-67
2022/05/23 07:18:56;;;;;;;21.02;15.23;;;;;;;18.23;69.83;100249.41;5032086;28;20562;-67
2022/05/23 07:21:24;;;;;;;20.92;14.10;;;;;;;18.24;70.33;100252.00;5027898;28;20037;-67
2022/05/23 07:23:49;;;;;;;20.20;14.52;;;;;;;18.27;69.11;100240.56;5018771;28;20036;-67
2022/05/23 07:26:16;;;;;;;19.85;13.20;;;;;;;18.30;70.01;100239.63;5017862;28;20026;-67
2022/05/23 07:28:45;;;;;;;21.13;13.73;;;;;;;18.31;67.52;100241.38;5011928;28;20114;-67
2022/05/23 07:31:11;;;;;;;16.40;12.77;;;;;;;18.31;67.74;100236.97;5023898;28;20037;-67
2022/05/23 07:33:39;;;;;;;18.08;13.13;;;;;;;18.32;67.21;100240.47;5012095;28;20073;-66
2022/05/23 07:36:05;;;;;;;23.50;13.32;;;;;;;18.33;67.82;100250.97;5012082;28;20029;-67
2022/05/23 07:38:31;;;;;;;22.85;13.90;;;;;;;18.35;68.36;100243.94;5031929;28;20417;-67
2022/05/23 07:40:58;;;;;;;21.85;13.75;;;;;;;18.37;69.39;100250.03;5030987;28;20480;-69
2022/05/23 07:43:23;;;;;;;21.15;14.77;;;;;;;18.40;67.64;100243.84;5012568;28;20120;-69
2022/05/23 07:45:50;;;;;;;23.58;14.88;;;;;;;18.42;67.62;100239.38;5012066;28;20485;-69
2022/05/23 07:48:16;;;;;;;22.02;14.65;;;;;;;18.45;66.24;100231.44;5011696;28;20342;-69
2022/05/23 07:50:45;;;;;;;22.73;15.18;;;;;;;18.48;66.06;100226.09;5019741;28;20359;-69
2022/05/23 08:01:24;;;;;;;20.42;13.85;;;;;;;18.81;65.66;100223.69;5019555;28;20083;-69
2022/05/23 08:03:50;;;;;;;18.65;13.75;;;;;;;18.88;67.44;100222.69;5011723;28;20045;-69
2022/05/23 08:06:16;;;;;;;23.73;15.02;;;;;;;18.92;65.81;100226.16;5011221;28;20377;-69
2022/05/23 08:08:41;;;;;;;18.48;13.32;;;;;;;18.97;65.79;100221.63;5011841;28;20022;-69
2022/05/23 08:11:08;;;;;;;18.90;13.13;;;;;;;19.04;65.13;100203.88;5018320;28;20033;-70
2022/05/23 08:13:35;;;;;;;22.45;13.65;;;;;;;19.07;63.81;100198.53;5011475;28;20471;-69
2022/05/23 08:16:01;;;;;;;20.02;13.32;;;;;;;19.12;65.47;100188.75;5011330;28;20033;-69
2022/05/23 08:18:26;;;;;;;21.50;13.05;;;;;;;19.15;65.51;100188.69;5011248;28;20018;-70
2022/05/23 08:20:51;;;;;;;18.60;13.25;;;;;;;19.18;65.34;100187.75;5016965;28;20024;-69
2022/05/23 08:23:17;;;;;;;19.10;12.63;;;;;;;19.17;64.13;100186.88;5011281;28;20623;-69
2022/05/23 08:25:42;;;;;;;17.80;12.57;;;;;;;19.20;65.47;100185.94;5026275;28;20025;-69
2022/05/23 08:28:07;;;;;;;19.90;12.63;;;;;;;19.18;63.79;100188.63;5032485;28;20029;-72
2022/05/23 08:30:32;;;;;;;22.02;13.00;;;;;;;19.17;64.52;100186.88;5030336;28;20016;-71
2022/05/23 08:32:58;;;;;;;20.10;11.68;;;;;;;19.20;65.32;100185.94;5026951;28;20039;-72
2022/05/23 08:35:24;;;;;;;17.67;11.05;;;;;;;19.20;66.82;100176.22;5028170;28;20022;-71
2022/05/23 08:37:51;;;;;;;17.77;11.77;;;;;;;19.20;67.44;100176.22;5011006;28;20021;-72
2022/05/23 08:40:17;;;;;;;19.23;11.15;;;;;;;19.23;68.26;100168.25;5009628;28;20025;-72
2022/05/23 08:42:52;;;;;;;19.58;11.45;;;;;;;19.24;67.89;100162.06;5025807;28;20041;-70
2022/05/23 08:45:40;;;;;;;21.35;11.00;;;;;;;19.25;68.21;100147.94;5026727;28;20492;-71
2022/05/23 08:48:42;;;;;;;39.13;14.43;;;;;;;19.30;67.95;100145.19;5025684;28;20115;-70
2022/05/23 08:51:18;;;;;;;24.27;13.15;;;;;;;19.29;66.23;100148.72;4995699;28;20033;-72
2022/05/23 08:53:53;;;;;;;21.08;12.65;;;;;;;19.27;65.87;100140.84;5026482;28;20057;-72
2022/05/23 08:56:39;;;;;;;21.58;11.65;;;;;;;19.30;66.96;100145.19;5027070;28;20132;-72
2022/05/23 08:59:15;;;;;;;18.17;12.25;;;;;;;19.33;65.43;100144.25;5024710;28;20065;-71
2022/05/23 09:01:48;;;;;;;22.08;12.45;;;;;;;19.32;66.86;100132.84;5029534;28;20025;-71
2022/05/23 09:04:47;;;;;;;18.38;12.40;;;;;;;19.37;66.49;100130.94;5012286;28;20049;-70
2022/05/23 09:07:28;;;;;;;17.02;11.35;;;;;;;19.40;67.02;100130.84;5020948;28;20524;-70
2022/05/23 09:09:56;;;;;;;17.30;12.05;;;;;;;19.44;66.26;100121.09;5015279;28;20064;-70
2022/05/23 09:12:22;;;;;;;21.42;13.52;;;;;;;19.48;65.23;100108.66;5014644;28;20053;-70
2022/05/23 09:14:47;;;;;;;18.33;13.07;;;;;;;19.50;66.91;100102.44;5029815;28;20060;-70
2022/05/23 09:17:23;;;;;;;19.38;12.95;;;;;;;19.49;65.72;100103.34;5013365;28;20022;-69
2022/05/23 09:20:00;;;;;;;20.35;13.80;;;;;;;19.48;64.94;100098.97;5010955;28;20022;-70
2022/05/23 09:22:50;;;;;;;20.10;14.15;;;;;;;19.51;66.07;100101.53;5017207;28;20088;-70
2022/05/23 09:25:21;;;;;;;19.20;13.90;;;;;;;19.51;65.86;100098.91;5010341;28;20048;-70
2022/05/23 09:28:20;;;;;;;20.85;14.60;;;;;;;19.51;65.25;100098.91;5010300;28;20026;-70
2022/05/23 09:30:55;;;;;;;19.40;14.07;;;;;;;19.52;65.94;100102.41;5023393;28;20505;-70
2022/05/23 09:33:21;;;;;;;21.10;13.90;;;;;;;19.52;67.91;100090.03;5024193;28;20021;-70
2022/05/23 09:35:51;;;;;;;19.75;13.10;;;;;;;19.52;67.72;100076.81;5029542;28;20035;-71
2022/05/23 09:38:29;;;;;;;16.48;12.65;;;;;;;19.53;66.80;100072.44;5024095;28;20444;-71
2022/05/23 09:40:55;;;;;;;23.65;12.63;;;;;;;19.54;64.74;100063.59;5026814;28;20083;-71
2022/05/23 09:49:14;;;;;;;18.02;12.80;;;;;;;19.73;66.13;100046.34;5031750;28;20091;-71
2022/05/23 09:51:58;;;;;;;18.85;12.32;;;;;;;19.79;65.21;100045.34;5031596;28;20455;-71
2022/05/23 09:54:46;;;;;;;17.15;12.02;;;;;;;19.82;64.08;100047.03;5025975;28;20072;-71
2022/05/23 09:57:26;;;;;;;17.25;12.48;;;;;;;19.84;63.93;100038.13;5031626;28;20038;-71
2022/05/23 09:59:59;;;;;;;19.83;12.93;;;;;;;19.88;64.24;100029.22;5027498;28;20069;-70
2022/05/23 10:02:48;;;;;;;19.10;13.00;;;;;;;19.95;63.28;100020.19;5020696;28;20022;-69
2022/05/23 10:05:30;;;;;;;20.92;13.25;;;;;;;20.07;64.39;100026.03;5032467;28;20386;-71
2022/05/23 10:08:01;;;;;;;21.90;14.80;;;;;;;20.11;61.36;100019.75;5024254;28;20029;-70
2022/05/23 10:10:30;;;;;;;18.08;14.18;;;;;;;20.13;62.52;100012.63;5024033;28;20044;-70
2022/05/23 10:13:23;;;;;;;18.70;12.25;;;;;;;20.21;63.18;100021.22;5016655;28;20397;-70
2022/05/23 10:15:53;;;;;;;18.73;13.52;;;;;;;20.23;61.66;100005.31;5012965;28;20025;-70
2022/05/23 10:18:50;;;;;;;21.90;12.95;;;;;;;20.35;63.46;100001.41;5013002;28;20033;-70
2022/05/23 10:21:31;;;;;;;24.05;13.02;;;;;;;20.41;62.18;100001.25;5008839;28;20424;-70
2022/05/23 10:24:11;;;;;;;19.15;12.98;;;;;;;20.47;59.85;100011.63;5013054;28;20096;-70
2022/05/23 10:27:08;;;;;;;19.65;12.40;;;;;;;20.58;62.07;100017.47;5012852;28;20026;-70
2022/05/23 10:29:57;;;;;;;16.10;11.75;;;;;;;20.70;62.20;100025.94;5013829;28;20061;-71
2022/05/23 10:32:28;;;;;;;;;;;;;;;20.77;62.63;100020.44;5013200;28;20033;-70
2022/05/23 10:35:05;;;;;;;15.52;11.02;;;;;;;20.91;59.87;100009.38;5019217;28;19909;-70
2022/05/23 10:37:32;;;;;;;16.95;12.52;;;;;;;20.97;59.33;100009.19;5012332;28;20040;-70
2022/05/23 10:43:01;;;;;;;16.80;10.93;;;;;;;21.11;59.31;99995.47;5012799;28;20073;-70
2022/05/23 10:46:02;;;;;;;14.05;10.07;;;;;;;21.21;59.07;99981.94;5012699;28;20507;-70
2022/05/23 10:48:38;;;;;;;17.98;11.10;;;;;;;21.30;59.41;99974.50;5000734;28;20519;-70
2022/05/23 10:51:22;;;;;;;14.95;10.23;;;;;;;21.38;59.69;99966.31;5012340;28;20026;-71
2022/05/23 10:54:06;;;;;;;17.17;12.32;;;;;;;21.46;59.62;99952.78;5022842;28;20025;-70
2022/05/23 10:56:57;;;;;;;18.05;13.38;;;;;;;21.58;58.08;99951.50;5022974;28;20591;-70
2022/05/23 10:59:31;;;;;;;15.65;10.95;;;;;;;21.61;59.01;99939.00;5011982;28;20060;-70
2022/05/23 11:02:16;;;;;;;18.02;10.77;;;;;;;21.67;59.02;99941.44;5017880;28;20108;-70
2022/05/23 11:05:07;;;;;;;15.57;10.68;;;;;;;21.75;59.40;99945.59;5019058;28;20030;-71
2022/05/23 11:07:56;;;;;;;21.23;12.27;;;;;;;21.87;57.32;99931.88;5012103;28;20032;-71
2022/05/23 11:10:30;;;;;;;15.70;11.60;;;;;;;21.99;59.41;99917.28;5011662;28;20034;-70
2022/05/23 11:13:16;;;;;;;18.17;11.80;;;;;;;22.03;58.50;99906.47;5026235;28;20575;-76
2022/05/23 11:15:57;;;;;;;19.50;12.48;;;;;;;22.12;56.31;99886.69;5024345;28;20732;-74
2022/05/23 11:18:47;;;;;;;19.13;14.60;;;;;;;22.21;57.03;99873.03;5009813;28;20927;-75
2022/05/23 11:21:26;;;;;;;17.58;11.85;;;;;;;22.26;57.50;99875.53;5030205;28;20076;-75
2022/05/23 11:23:59;;;;;;;18.02;12.95;;;;;;;22.28;54.57;99863.03;5028251;28;20441;-75
2022/05/23 11:26:29;;;;;;;19.50;12.55;;;;;;;22.42;57.07;99861.63;5025945;28;20056;-75
2022/05/23 11:34:40;;;;;;;14.10;9.60;;;;;;;22.37;54.17;99851.22;5042641;28;20519;-74
2022/05/23 11:37:42;;;;;;;14.18;8.05;;;;;;;22.37;55.29;99835.28;5042883;28;20021;-75
2022/05/23 11:40:06;;;;;;;11.23;7.20;;;;;;;22.45;53.27;99843.81;5040082;28;20496;-75
2022/05/23 11:42:56;;;;;;;14.43;7.78;;;;;;;22.59;55.20;99837.91;5045211;28;20081;-74
2022/05/23 11:48:40;;;;;;;13.65;7.95;;;;;;;22.82;55.74;99828.09;5047165;28;20112;-74
2022/05/23 11:51:11;;;;;;;9.57;6.80;;;;;;;22.84;53.67;99829.75;5042649;28;20039;-73
2022/05/23 11:53:40;;;;;;;15.65;7.63;;;;;;;22.81;55.00;99826.34;5047635;28;20056;-75
2022/05/23 11:56:09;;;;;;;18.08;7.90;;;;;;;22.80;54.96;99819.34;5044154;28;20032;-74
2022/05/23 11:58:42;;;;;;;11.75;8.02;;;;;;;22.79;52.45;99814.97;5043540;28;20559;-74
2022/05/23 12:01:07;;;;;;;14.18;8.63;;;;;;;22.79;52.72;99813.16;5042067;28;20391;-74
2022/05/23 12:03:48;;;;;;;13.93;7.83;;;;;;;22.80;54.15;99814.88;5040358;28;20025;-74
2022/05/23 12:06:18;;;;;;;10.35;7.28;;;;;;;22.81;53.36;99813.09;5047430;28;20029;-74
2022/05/23 12:08:59;;;;;;;13.60;8.10;;;;;;;22.83;53.21;99800.63;5043330;28;20047;-73
2022/05/23 12:11:36;;;;;;;27.70;21.52;;;;;;;22.81;55.12;99805.13;5039524;28;20216;-73
2022/05/23 12:14:20;;;;;;;88.20;52.63;;;;;;;22.75;54.55;99807.13;5040602;28;20067;-76
2022/05/23 12:16:54;;;;;;;12.68;7.25;;;;;;;22.71;56.67;99805.53;5039671;28;20053;-74
2022/05/23 12:19:23;;;;;;;12.77;7.47;;;;;;;22.64;55.41;99795.22;5039578;28;20036;-73
2022/05/23 12:21:49;;;;;;;21.52;7.57;;;;;;;22.60;58.48;99796.31;5044372;28;20029;-77